sensor_id;sensor_type;location;lat;lon;timestamp;pressure;altitude;pressure_sealevel;temperature;humidity
49030;BME280;43337;52.070;4.508;2023-10-08T00:02:45;102462.25;;;18.49;100.00
49030;BME280;43337;52.070;4.508;2023-10-08T00:05:11;102460.84;;;18.42;100.00
49030;BME280;43337;52.070;4.508;2023-10-08T00:07:38;102448.03;;;18.32;100.00
49030;BME280;43337;52.070;4.508;2023-10-08T00:10:08;102460.19;;;18.37;100.00
49030;BME280;43337;52.070;4.508;2023-10-08T00:12:33;102458.53;;;18.35;100.00
49030;BME280;43337;52.070;4.508;2023-10-08T00:14:59;102436.41;;;18.15;100.00
49030;BME280;43337;52.070;4.508;2023-10-08T00:17:25;102430.97;;;18.17;100.00
49030;BME280;43337;52.070;4.508;2023-10-08T00:19:51;102430.13;;;18.16;100.00
49030;BME280;43337;52.070;4.508;2023-10-08T00:22:18;102446.44;;;18.27;100.00
49030;BME280;43337;52.070;4.508;2023-10-08T00:24:44;102436.03;;;18.23;100.00
49030;BME280;43337;52.070;4.508;2023-10-08T00:27:20;102432.53;;;18.21;100.00
49030;BME280;43337;52.070;4.508;2023-10-08T00:29:47;102398.88;;;18.01;100.00
49030;BME280;43337;52.070;4.508;2023-10-08T00:32:12;102391.88;;;17.98;100.00
49030;BME280;43337;52.070;4.508;2023-10-08T00:34:39;102408.22;;;18.10;100.00
49030;BME280;43337;52.070;4.508;2023-10-08T00:37:07;102413.41;;;18.13;100.00
49030;BME280;43337;52.070;4.508;2023-10-08T00:39:34;102415.94;;;18.16;100.00
49030;BME280;43337;52.070;4.508;2023-10-08T00:42:02;102411.44;;;18.16;100.00
49030;BME280;43337;52.070;4.508;2023-10-08T00:44:30;102397.56;;;18.10;100.00
49030;BME280;43337;52.070;4.508;2023-10-08T00:46:57;102392.22;;;18.10;100.00
49030;BME280;43337;52.070;4.508;2023-10-08T00:49:27;102410.69;;;18.14;100.00
49030;BME280;43337;52.070;4.508;2023-10-08T00:52:12;102423.22;;;18.12;100.00
49030;BME280;43337;52.070;4.508;2023-10-08T00:54:39;102390.31;;;17.94;100.00
49030;BME280;43337;52.070;4.508;2023-10-08T00:57:18;102403.56;;;17.96;100.00
49030;BME280;43337;52.070;4.508;2023-10-08T00:59:47;102427.03;;;18.07;100.00
49030;BME280;43337;52.070;4.508;2023-10-08T01:02:23;102434.25;;;18.04;100.00
49030;BME280;43337;52.070;4.508;2023-10-08T01:04:57;102426.47;;;18.00;100.00
49030;BME280;43337;52.070;4.508;2023-10-08T01:07:23;102424.31;;;17.89;100.00
49030;BME280;43337;52.070;4.508;2023-10-08T01:09:49;102443.47;;;17.97;100.00
49030;BME280;43337;52.070;4.508;2023-10-08T01:12:26;102415.69;;;17.84;100.00
49030;BME280;43337;52.070;4.508;2023-10-08T01:14:51;102421.88;;;17.85;100.00
49030;BME280;43337;52.070;4.508;2023-10-08T01:17:19;102415.59;;;17.86;100.00
49030;BME280;43337;52.070;4.508;2023-10-08T01:19:50;102409.50;;;17.84;100.00
49030;BME280;43337;52.070;4.508;2023-10-08T01:22:35;102394.78;;;17.75;100.00
49030;BME280;43337;52.070;4.508;2023-10-08T01:25:04;102429.50;;;17.92;100.00
49030;BME280;43337;52.070;4.508;2023-10-08T01:27:30;102449.78;;;17.95;100.00
49030;BME280;43337;52.070;4.508;2023-10-08T01:30:00;102458.69;;;17.95;100.00
49030;BME280;43337;52.070;4.508;2023-10-08T01:32:37;102431.69;;;17.84;100.00
49030;BME280;43337;52.070;4.508;2023-10-08T01:35:02;102434.25;;;17.86;100.00
49030;BME280;43337;52.070;4.508;2023-10-08T01:37:30;102429.19;;;17.79;100.00
49030;BME280;43337;52.070;4.508;2023-10-08T01:39:59;102434.47;;;17.81;100.00
49030;BME280;43337;52.070;4.508;2023-10-08T01:42:26;102457.00;;;17.93;100.00
49030;BME280;43337;52.070;4.508;2023-10-08T01:44:53;102455.47;;;17.87;100.00
49030;BME280;43337;52.070;4.508;2023-10-08T01:47:21;102458.31;;;17.84;100.00
49030;BME280;43337;52.070;4.508;2023-10-08T01:49:50;102474.00;;;17.90;100.00
49030;BME280;43337;52.070;4.508;2023-10-08T01:52:18;102447.41;;;17.70;100.00
49030;BME280;43337;52.070;4.508;2023-10-08T01:54:50;102468.59;;;17.73;100.00
49030;BME280;43337;52.070;4.508;2023-10-08T01:57:19;102482.50;;;17.79;100.00
49030;BME280;43337;52.070;4.508;2023-10-08T01:59:44;102493.75;;;17.86;100.00
49030;BME280;43337;52.070;4.508;2023-10-08T02:02:10;102497.34;;;17.85;100.00
49030;BME280;43337;52.070;4.508;2023-10-08T02:04:37;102477.44;;;17.73;100.00
49030;BME280;43337;52.070;4.508;2023-10-08T02:07:03;102490.22;;;17.86;100.00
49030;BME280;43337;52.070;4.508;2023-10-08T02:09:30;102449.47;;;17.63;100.00
49030;BME280;43337;52.070;4.508;2023-10-08T02:11:55;102475.22;;;17.83;100.00
49030;BME280;43337;52.070;4.508;2023-10-08T02:14:22;102477.09;;;17.81;100.00
49030;BME280;43337;52.070;4.508;2023-10-08T02:16:49;102474.66;;;17.76;100.00
49030;BME280;43337;52.070;4.508;2023-10-08T02:19:15;102490.44;;;17.81;100.00
49030;BME280;43337;52.070;4.508;2023-10-08T02:21:44;102443.94;;;17.68;100.00
49030;BME280;43337;52.070;4.508;2023-10-08T02:24:12;102437.09;;;17.62;100.00
49030;BME280;43337;52.070;4.508;2023-10-08T02:26:38;102463.06;;;17.77;100.00
49030;BME280;43337;52.070;4.508;2023-10-08T02:29:05;102453.69;;;17.69;100.00
49030;BME280;43337;52.070;4.508;2023-10-08T02:31:37;102472.97;;;17.74;100.00
49030;BME280;43337;52.070;4.508;2023-10-08T02:34:03;102475.75;;;17.71;100.00
49030;BME280;43337;52.070;4.508;2023-10-08T02:36:29;102466.28;;;17.65;100.00
49030;BME280;43337;52.070;4.508;2023-10-08T02:38:56;102486.38;;;17.72;100.00
49030;BME280;43337;52.070;4.508;2023-10-08T02:41:21;102464.09;;;17.54;100.00
49030;BME280;43337;52.070;4.508;2023-10-08T02:43:49;102475.13;;;17.66;100.00
49030;BME280;43337;52.070;4.508;2023-10-08T02:46:15;102477.88;;;17.64;100.00
49030;BME280;43337;52.070;4.508;2023-10-08T02:48:41;102469.88;;;17.64;100.00
49030;BME280;43337;52.070;4.508;2023-10-08T02:51:08;102478.88;;;17.62;100.00
49030;BME280;43337;52.070;4.508;2023-10-08T02:53:40;102476.19;;;17.62;100.00
49030;BME280;43337;52.070;4.508;2023-10-08T02:56:09;102449.63;;;17.41;100.00
49030;BME280;43337;52.070;4.508;2023-10-08T02:58:42;102486.13;;;17.58;100.00
49030;BME280;43337;52.070;4.508;2023-10-08T03:01:09;102479.25;;;17.52;100.00
49030;BME280;43337;52.070;4.508;2023-10-08T03:03:39;102450.66;;;17.37;100.00
49030;BME280;43337;52.070;4.508;2023-10-08T03:06:06;102461.19;;;17.40;100.00
49030;BME280;43337;52.070;4.508;2023-10-08T03:08:37;102467.97;;;17.47;100.00
49030;BME280;43337;52.070;4.508;2023-10-08T03:11:02;102452.47;;;17.37;100.00
49030;BME280;43337;52.070;4.508;2023-10-08T03:13:28;102464.78;;;17.39;100.00
49030;BME280;43337;52.070;4.508;2023-10-08T03:15:54;102486.59;;;17.47;100.00
49030;BME280;43337;52.070;4.508;2023-10-08T03:18:26;102469.59;;;17.31;100.00
49030;BME280;43337;52.070;4.508;2023-10-08T03:21:04;102488.66;;;17.41;100.00
49030;BME280;43337;52.070;4.508;2023-10-08T03:23:31;102485.22;;;17.39;100.00
49030;BME280;43337;52.070;4.508;2023-10-08T03:26:01;102492.28;;;17.40;100.00
49030;BME280;43337;52.070;4.508;2023-10-08T03:28:34;102471.75;;;17.23;100.00
49030;BME280;43337;52.070;4.508;2023-10-08T03:31:01;102504.94;;;17.35;100.00
49030;BME280;43337;52.070;4.508;2023-10-08T03:33:39;102515.81;;;17.30;100.00
49030;BME280;43337;52.070;4.508;2023-10-08T03:36:06;102491.56;;;17.16;100.00
49030;BME280;43337;52.070;4.508;2023-10-08T03:38:50;102519.25;;;17.32;100.00
49030;BME280;43337;52.070;4.508;2023-10-08T03:41:23;102524.66;;;17.30;100.00
49030;BME280;43337;52.070;4.508;2023-10-08T03:43:56;102507.94;;;17.27;100.00
49030;BME280;43337;52.070;4.508;2023-10-08T03:46:28;102512.44;;;17.25;100.00
49030;BME280;43337;52.070;4.508;2023-10-08T03:48:54;102512.66;;;17.20;100.00
49030;BME280;43337;52.070;4.508;2023-10-08T03:51:23;102528.50;;;17.23;100.00
49030;BME280;43337;52.070;4.508;2023-10-08T03:53:55;102524.78;;;17.27;100.00
49030;BME280;43337;52.070;4.508;2023-10-08T03:56:28;102519.88;;;17.18;100.00
49030;BME280;43337;52.070;4.508;2023-10-08T03:58:57;102497.69;;;16.97;100.00
49030;BME280;43337;52.070;4.508;2023-10-08T04:01:25;102545.41;;;17.22;100.00
49030;BME280;43337;52.070;4.508;2023-10-08T04:03:55;102545.75;;;17.15;100.00
49030;BME280;43337;52.070;4.508;2023-10-08T04:06:24;102558.00;;;17.19;100.00
49030;BME280;43337;52.070;4.508;2023-10-08T04:09:00;102554.78;;;17.11;100.00
49030;BME280;43337;52.070;4.508;2023-10-08T04:11:36;102566.88;;;17.18;100.00
49030;BME280;43337;52.070;4.508;2023-10-08T04:14:08;102558.13;;;17.16;100.00
49030;BME280;43337;52.070;4.508;2023-10-08T04:16:34;102537.34;;;17.03;100.00
49030;BME280;43337;52.070;4.508;2023-10-08T04:19:05;102568.69;;;17.17;100.00
49030;BME280;43337;52.070;4.508;2023-10-08T04:21:34;102560.91;;;17.13;100.00
49030;BME280;43337;52.070;4.508;2023-10-08T04:24:05;102509.09;;;16.79;100.00
49030;BME280;43337;52.070;4.508;2023-10-08T04:27:08;102538.13;;;16.85;100.00
49030;BME280;43337;52.070;4.508;2023-10-08T04:29:50;102589.44;;;17.09;100.00
49030;BME280;43337;52.070;4.508;2023-10-08T04:32:38;102547.47;;;16.95;100.00
49030;BME280;43337;52.070;4.508;2023-10-08T04:35:26;102517.16;;;16.77;100.00
49030;BME280;43337;52.070;4.508;2023-10-08T04:37:52;102561.50;;;16.99;100.00
49030;BME280;43337;52.070;4.508;2023-10-08T04:40:18;102541.72;;;16.84;100.00
49030;BME280;43337;52.070;4.508;2023-10-08T04:42:47;102571.13;;;17.01;100.00
49030;BME280;43337;52.070;4.508;2023-10-08T04:45:13;102555.38;;;16.97;100.00
49030;BME280;43337;52.070;4.508;2023-10-08T04:47:41;102535.53;;;16.83;100.00
49030;BME280;43337;52.070;4.508;2023-10-08T04:50:08;102565.34;;;16.92;100.00
49030;BME280;43337;52.070;4.508;2023-10-08T04:52:40;102561.97;;;16.87;100.00
49030;BME280;43337;52.070;4.508;2023-10-08T04:55:11;102564.59;;;16.88;100.00
49030;BME280;43337;52.070;4.508;2023-10-08T04:57:46;102534.06;;;16.76;100.00
49030;BME280;43337;52.070;4.508;2023-10-08T05:00:11;102552.41;;;16.82;100.00
49030;BME280;43337;52.070;4.508;2023-10-08T05:02:40;102556.94;;;16.80;100.00
49030;BME280;43337;52.070;4.508;2023-10-08T05:05:15;102566.72;;;16.80;100.00
49030;BME280;43337;52.070;4.508;2023-10-08T05:07:41;102571.97;;;16.81;100.00
49030;BME280;43337;52.070;4.508;2023-10-08T05:10:10;102581.63;;;16.84;100.00
49030;BME280;43337;52.070;4.508;2023-10-08T05:12:47;102570.97;;;16.84;100.00
49030;BME280;43337;52.070;4.508;2023-10-08T05:15:26;102557.13;;;16.76;100.00
49030;BME280;43337;52.070;4.508;2023-10-08T05:18:10;102548.59;;;16.66;100.00
49030;BME280;43337;52.070;4.508;2023-10-08T05:20:36;102584.28;;;16.84;100.00
49030;BME280;43337;52.070;4.508;2023-10-08T05:23:14;102587.84;;;16.83;100.00
49030;BME280;43337;52.070;4.508;2023-10-08T05:25:53;102592.41;;;16.79;100.00
49030;BME280;43337;52.070;4.508;2023-10-08T05:28:39;102569.25;;;16.59;100.00
49030;BME280;43337;52.070;4.508;2023-10-08T05:31:28;102566.66;;;16.58;100.00
49030;BME280;43337;52.070;4.508;2023-10-08T05:34:11;102576.81;;;16.70;100.00
49030;BME280;43337;52.070;4.508;2023-10-08T05:36:42;102549.22;;;16.51;100.00
49030;BME280;43337;52.070;4.508;2023-10-08T05:39:26;102571.13;;;16.57;100.00
49030;BME280;43337;52.070;4.508;2023-10-08T05:42:03;102575.50;;;16.58;100.00
49030;BME280;43337;52.070;4.508;2023-10-08T05:44:43;102574.84;;;16.53;100.00
49030;BME280;43337;52.070;4.508;2023-10-08T05:47:32;102590.59;;;16.58;100.00
49030;BME280;43337;52.070;4.508;2023-10-08T05:49:57;102588.19;;;16.52;100.00
49030;BME280;43337;52.070;4.508;2023-10-08T05:52:42;102581.25;;;16.48;100.00
49030;BME280;43337;52.070;4.508;2023-10-08T05:55:23;102590.94;;;16.49;100.00
49030;BME280;43337;52.070;4.508;2023-10-08T05:57:59;102602.47;;;16.49;100.00
49030;BME280;43337;52.070;4.508;2023-10-08T06:00:40;102587.22;;;16.31;100.00
49030;BME280;43337;52.070;4.508;2023-10-08T06:03:30;102610.00;;;16.38;100.00
49030;BME280;43337;52.070;4.508;2023-10-08T06:06:06;102616.19;;;16.39;100.00
49030;BME280;43337;52.070;4.508;2023-10-08T06:08:41;102626.81;;;16.39;100.00
49030;BME280;43337;52.070;4.508;2023-10-08T06:11:25;102627.78;;;16.36;100.00
49030;BME280;43337;52.070;4.508;2023-10-08T06:14:09;102640.41;;;16.31;100.00
49030;BME280;43337;52.070;4.508;2023-10-08T06:16:43;102598.09;;;16.01;100.00
49030;BME280;43337;52.070;4.508;2023-10-08T06:19:27;102619.88;;;16.11;100.00
49030;BME280;43337;52.070;4.508;2023-10-08T06:21:52;102640.97;;;16.16;100.00
49030;BME280;43337;52.070;4.508;2023-10-08T06:24:18;102624.56;;;16.04;100.00
49030;BME280;43337;52.070;4.508;2023-10-08T06:26:46;102624.66;;;16.01;100.00
49030;BME280;43337;52.070;4.508;2023-10-08T06:29:14;102638.63;;;16.06;100.00
49030;BME280;43337;52.070;4.508;2023-10-08T06:31:53;102625.09;;;15.89;100.00
49030;BME280;43337;52.070;4.508;2023-10-08T06:34:21;102650.91;;;16.10;100.00
49030;BME280;43337;52.070;4.508;2023-10-08T06:36:53;102650.94;;;16.09;100.00
49030;BME280;43337;52.070;4.508;2023-10-08T06:39:23;102617.13;;;15.89;100.00
49030;BME280;43337;52.070;4.508;2023-10-08T06:41:59;102622.28;;;15.94;100.00
49030;BME280;43337;52.070;4.508;2023-10-08T06:44:24;102620.59;;;15.91;100.00
49030;BME280;43337;52.070;4.508;2023-10-08T06:46:51;102663.44;;;16.07;100.00
49030;BME280;43337;52.070;4.508;2023-10-08T06:49:21;102670.75;;;16.00;100.00
49030;BME280;43337;52.070;4.508;2023-10-08T06:51:49;102682.06;;;16.05;100.00
49030;BME280;43337;52.070;4.508;2023-10-08T06:54:15;102672.59;;;15.98;100.00
49030;BME280;43337;52.070;4.508;2023-10-08T06:56:44;102677.75;;;16.03;100.00
49030;BME280;43337;52.070;4.508;2023-10-08T06:59:15;102654.31;;;15.89;100.00
49030;BME280;43337;52.070;4.508;2023-10-08T07:01:42;102680.78;;;15.92;100.00
49030;BME280;43337;52.070;4.508;2023-10-08T07:04:14;102674.38;;;15.98;100.00
49030;BME280;43337;52.070;4.508;2023-10-08T07:06:40;102642.63;;;15.70;100.00
49030;BME280;43337;52.070;4.508;2023-10-08T07:09:11;102672.84;;;15.91;100.00
49030;BME280;43337;52.070;4.508;2023-10-08T07:11:57;102685.44;;;15.85;100.00
49030;BME280;43337;52.070;4.508;2023-10-08T07:14:24;102689.91;;;15.85;100.00
49030;BME280;43337;52.070;4.508;2023-10-08T07:16:56;102686.75;;;15.74;100.00
49030;BME280;43337;52.070;4.508;2023-10-08T07:19:24;102663.53;;;15.52;100.00
49030;BME280;43337;52.070;4.508;2023-10-08T07:21:59;102699.09;;;15.75;100.00
49030;BME280;43337;52.070;4.508;2023-10-08T07:24:29;102705.41;;;15.72;100.00
49030;BME280;43337;52.070;4.508;2023-10-08T07:27:01;102708.75;;;15.77;100.00
49030;BME280;43337;52.070;4.508;2023-10-08T07:29:37;102694.34;;;15.58;100.00
49030;BME280;43337;52.070;4.508;2023-10-08T07:32:03;102696.22;;;15.54;100.00
49030;BME280;43337;52.070;4.508;2023-10-08T07:34:37;102699.69;;;15.56;100.00
49030;BME280;43337;52.070;4.508;2023-10-08T07:37:03;102717.13;;;15.63;100.00
49030;BME280;43337;52.070;4.508;2023-10-08T07:39:31;102727.66;;;15.68;100.00
49030;BME280;43337;52.070;4.508;2023-10-08T07:41:57;102735.72;;;15.65;100.00
49030;BME280;43337;52.070;4.508;2023-10-08T07:44:26;102703.59;;;15.45;100.00
49030;BME280;43337;52.070;4.508;2023-10-08T07:47:01;102733.00;;;15.67;100.00
49030;BME280;43337;52.070;4.508;2023-10-08T07:49:27;102680.75;;;15.41;100.00
49030;BME280;43337;52.070;4.508;2023-10-08T07:52:00;102691.97;;;15.49;100.00
49030;BME280;43337;52.070;4.508;2023-10-08T07:54:26;102714.66;;;15.59;100.00
49030;BME280;43337;52.070;4.508;2023-10-08T07:56:57;102703.47;;;15.49;100.00
49030;BME280;43337;52.070;4.508;2023-10-08T07:59:35;102716.59;;;15.54;100.00
49030;BME280;43337;52.070;4.508;2023-10-08T08:02:05;102717.38;;;15.57;100.00
49030;BME280;43337;52.070;4.508;2023-10-08T08:04:45;102724.34;;;15.60;100.00
49030;BME280;43337;52.070;4.508;2023-10-08T08:07:22;102746.97;;;15.73;100.00
49030;BME280;43337;52.070;4.508;2023-10-08T08:09:55;102754.00;;;15.74;100.00
49030;BME280;43337;52.070;4.508;2023-10-08T08:12:27;102747.88;;;15.72;100.00
49030;BME280;43337;52.070;4.508;2023-10-08T08:14:57;102750.72;;;15.66;100.00
49030;BME280;43337;52.070;4.508;2023-10-08T08:17:30;102760.41;;;15.69;100.00
49030;BME280;43337;52.070;4.508;2023-10-08T08:20:16;102768.31;;;15.70;100.00
49030;BME280;43337;52.070;4.508;2023-10-08T08:22:44;102764.56;;;15.76;100.00
49030;BME280;43337;52.070;4.508;2023-10-08T08:25:19;102770.69;;;15.78;100.00
49030;BME280;43337;52.070;4.508;2023-10-08T08:28:05;102745.47;;;15.63;100.00
49030;BME280;43337;52.070;4.508;2023-10-08T08:30:32;102779.44;;;15.81;100.00
49030;BME280;43337;52.070;4.508;2023-10-08T08:33:04;102754.31;;;15.63;100.00
49030;BME280;43337;52.070;4.508;2023-10-08T08:35:39;102752.53;;;15.66;100.00
49030;BME280;43337;52.070;4.508;2023-10-08T08:38:04;102777.75;;;15.79;100.00
49030;BME280;43337;52.070;4.508;2023-10-08T08:40:31;102750.19;;;15.55;100.00
49030;BME280;43337;52.070;4.508;2023-10-08T08:43:02;102788.47;;;15.76;100.00
49030;BME280;43337;52.070;4.508;2023-10-08T08:45:31;102784.84;;;15.78;100.00
49030;BME280;43337;52.070;4.508;2023-10-08T08:48:21;102730.97;;;15.47;100.00
49030;BME280;43337;52.070;4.508;2023-10-08T08:50:50;102757.78;;;15.67;100.00
49030;BME280;43337;52.070;4.508;2023-10-08T08:53:15;102742.69;;;15.68;100.00
49030;BME280;43337;52.070;4.508;2023-10-08T08:55:40;102779.38;;;15.83;100.00
49030;BME280;43337;52.070;4.508;2023-10-08T08:58:10;102777.59;;;15.83;100.00
49030;BME280;43337;52.070;4.508;2023-10-08T09:00:37;102775.00;;;15.82;100.00
49030;BME280;43337;52.070;4.508;2023-10-08T09:03:05;102760.19;;;15.75;100.00
49030;BME280;43337;52.070;4.508;2023-10-08T09:05:32;102773.94;;;15.88;100.00
49030;BME280;43337;52.070;4.508;2023-10-08T09:08:04;102734.00;;;15.62;100.00
49030;BME280;43337;52.070;4.508;2023-10-08T09:10:38;102776.44;;;15.92;100.00
49030;BME280;43337;52.070;4.508;2023-10-08T09:13:37;102778.09;;;15.95;100.00
49030;BME280;43337;52.070;4.508;2023-10-08T09:16:13;102716.91;;;15.71;100.00
49030;BME280;43337;52.070;4.508;2023-10-08T09:18:51;102739.44;;;15.86;100.00
49030;BME280;43337;52.070;4.508;2023-10-08T09:21:23;102751.50;;;15.96;100.00
49030;BME280;43337;52.070;4.508;2023-10-08T09:23:55;102760.25;;;15.98;100.00
49030;BME280;43337;52.070;4.508;2023-10-08T09:26:26;102710.56;;;15.75;100.00
49030;BME280;43337;52.070;4.508;2023-10-08T09:28:58;102759.41;;;15.98;100.00
49030;BME280;43337;52.070;4.508;2023-10-08T09:31:24;102762.88;;;16.00;100.00
49030;BME280;43337;52.070;4.508;2023-10-08T09:33:58;102768.97;;;16.03;100.00
49030;BME280;43337;52.070;4.508;2023-10-08T09:36:28;102771.72;;;16.00;100.00
49030;BME280;43337;52.070;4.508;2023-10-08T09:39:03;102748.22;;;15.88;100.00
49030;BME280;43337;52.070;4.508;2023-10-08T09:41:36;102743.56;;;15.95;100.00
49030;BME280;43337;52.070;4.508;2023-10-08T09:44:03;102763.31;;;16.13;100.00
49030;BME280;43337;52.070;4.508;2023-10-08T09:46:31;102715.25;;;15.94;100.00
49030;BME280;43337;52.070;4.508;2023-10-08T09:49:03;102703.28;;;15.82;100.00
49030;BME280;43337;52.070;4.508;2023-10-08T09:51:33;102705.94;;;15.82;100.00
49030;BME280;43337;52.070;4.508;2023-10-08T09:54:11;102765.91;;;16.14;100.00
49030;BME280;43337;52.070;4.508;2023-10-08T09:56:40;102741.81;;;15.94;100.00
49030;BME280;43337;52.070;4.508;2023-10-08T09:59:11;102766.06;;;16.09;100.00
49030;BME280;43337;52.070;4.508;2023-10-08T10:01:38;102764.19;;;16.13;100.00
49030;BME280;43337;52.070;4.508;2023-10-08T10:04:22;102760.75;;;16.09;100.00
49030;BME280;43337;52.070;4.508;2023-10-08T10:06:49;102751.44;;;15.98;100.00
49030;BME280;43337;52.070;4.508;2023-10-08T10:09:23;102766.06;;;16.09;100.00
49030;BME280;43337;52.070;4.508;2023-10-08T10:11:50;102759.72;;;16.14;100.00
49030;BME280;43337;52.070;4.508;2023-10-08T10:14:16;102715.16;;;15.97;100.00
49030;BME280;43337;52.070;4.508;2023-10-08T10:16:43;102765.63;;;16.22;100.00
49030;BME280;43337;52.070;4.508;2023-10-08T10:19:20;102777.88;;;16.27;100.00
49030;BME280;43337;52.070;4.508;2023-10-08T10:21:50;102763.72;;;16.27;100.00
49030;BME280;43337;52.070;4.508;2023-10-08T10:24:32;102781.00;;;16.39;100.00
49030;BME280;43337;52.070;4.508;2023-10-08T10:27:15;102782.63;;;16.43;100.00
49030;BME280;43337;52.070;4.508;2023-10-08T10:29:42;102755.66;;;16.28;100.00
49030;BME280;43337;52.070;4.508;2023-10-08T10:32:10;102787.84;;;16.46;100.00
49030;BME280;43337;52.070;4.508;2023-10-08T10:34:39;102790.91;;;16.58;100.00
49030;BME280;43337;52.070;4.508;2023-10-08T10:37:04;102771.19;;;16.64;100.00
49030;BME280;43337;52.070;4.508;2023-10-08T10:39:58;102773.91;;;16.63;100.00
49030;BME280;43337;52.070;4.508;2023-10-08T10:42:27;102775.34;;;16.73;100.00
49030;BME280;43337;52.070;4.508;2023-10-08T10:44:54;102777.84;;;16.77;100.00
49030;BME280;43337;52.070;4.508;2023-10-08T10:47:21;102772.44;;;16.79;100.00
49030;BME280;43337;52.070;4.508;2023-10-08T10:49:50;102755.81;;;16.74;100.00
49030;BME280;43337;52.070;4.508;2023-10-08T10:52:16;102763.72;;;16.75;100.00
49030;BME280;43337;52.070;4.508;2023-10-08T10:54:51;102738.56;;;16.60;100.00
49030;BME280;43337;52.070;4.508;2023-10-08T10:57:25;102752.66;;;16.63;100.00
49030;BME280;43337;52.070;4.508;2023-10-08T11:02:45;102723.91;;;16.49;100.00
49030;BME280;43337;52.070;4.508;2023-10-08T11:05:15;102717.84;;;16.45;100.00
49030;BME280;43337;52.070;4.508;2023-10-08T11:07:48;102739.34;;;16.63;100.00
49030;BME280;43337;52.070;4.508;2023-10-08T11:10:13;102724.38;;;16.60;100.00
49030;BME280;43337;52.070;4.508;2023-10-08T11:12:43;102722.41;;;16.65;100.00
49030;BME280;43337;52.070;4.508;2023-10-08T11:15:13;102755.22;;;16.89;100.00
49030;BME280;43337;52.070;4.508;2023-10-08T11:17:44;102755.16;;;16.91;100.00
49030;BME280;43337;52.070;4.508;2023-10-08T11:20:28;102730.72;;;16.81;100.00
49030;BME280;43337;52.070;4.508;2023-10-08T11:22:55;102729.56;;;16.88;100.00
49030;BME280;43337;52.070;4.508;2023-10-08T11:25:24;102753.78;;;17.04;100.00
49030;BME280;43337;52.070;4.508;2023-10-08T11:27:56;102753.50;;;17.10;100.00
49030;BME280;43337;52.070;4.508;2023-10-08T11:30:27;102730.88;;;17.00;100.00
49030;BME280;43337;52.070;4.508;2023-10-08T11:32:59;102750.81;;;17.12;100.00
49030;BME280;43337;52.070;4.508;2023-10-08T11:35:25;102756.13;;;17.12;100.00
49030;BME280;43337;52.070;4.508;2023-10-08T11:37:58;102740.28;;;17.08;100.00
49030;BME280;43337;52.070;4.508;2023-10-08T11:40:26;102759.25;;;17.23;100.00
49030;BME280;43337;52.070;4.508;2023-10-08T11:43:13;102758.94;;;17.30;100.00
49030;BME280;43337;52.070;4.508;2023-10-08T11:45:42;102747.03;;;17.39;100.00
49030;BME280;43337;52.070;4.508;2023-10-08T11:48:14;102751.19;;;17.46;100.00
49030;BME280;43337;52.070;4.508;2023-10-08T11:50:43;102745.88;;;17.46;100.00
49030;BME280;43337;52.070;4.508;2023-10-08T11:53:13;102715.53;;;17.28;100.00
49030;BME280;43337;52.070;4.508;2023-10-08T11:55:38;102742.94;;;17.52;100.00
49030;BME280;43337;52.070;4.508;2023-10-08T11:58:10;102730.22;;;17.59;100.00
49030;BME280;43337;52.070;4.508;2023-10-08T12:03:31;102724.16;;;17.77;100.00
49030;BME280;43337;52.070;4.508;2023-10-08T12:06:00;102692.75;;;17.64;100.00
49030;BME280;43337;52.070;4.508;2023-10-08T12:08:26;102712.66;;;17.77;100.00
49030;BME280;43337;52.070;4.508;2023-10-08T12:10:54;102702.94;;;17.76;100.00
49030;BME280;43337;52.070;4.508;2023-10-08T12:13:26;102697.63;;;17.74;100.00
49030;BME280;43337;52.070;4.508;2023-10-08T12:15:53;102676.84;;;17.62;100.00
49030;BME280;43337;52.070;4.508;2023-10-08T12:18:27;102680.97;;;17.69;100.00
49030;BME280;43337;52.070;4.508;2023-10-08T12:20:53;102674.63;;;17.72;100.00
49030;BME280;43337;52.070;4.508;2023-10-08T12:23:22;102660.44;;;17.71;100.00
49030;BME280;43337;52.070;4.508;2023-10-08T12:25:53;102676.63;;;17.89;100.00
49030;BME280;43337;52.070;4.508;2023-10-08T12:28:26;102650.16;;;17.84;100.00
49030;BME280;43337;52.070;4.508;2023-10-08T12:30:52;102668.94;;;18.01;100.00
49030;BME280;43337;52.070;4.508;2023-10-08T12:33:19;102647.34;;;17.87;100.00
49030;BME280;43337;52.070;4.508;2023-10-08T12:35:45;102672.34;;;18.05;100.00
49030;BME280;43337;52.070;4.508;2023-10-08T12:38:12;102617.03;;;17.69;100.00
49030;BME280;43337;52.070;4.508;2023-10-08T12:40:39;102658.00;;;17.87;100.00
49030;BME280;43337;52.070;4.508;2023-10-08T12:43:35;102640.28;;;17.86;100.00
49030;BME280;43337;52.070;4.508;2023-10-08T12:46:04;102638.38;;;17.90;100.00
49030;BME280;43337;52.070;4.508;2023-10-08T12:48:29;102634.75;;;17.91;100.00
49030;BME280;43337;52.070;4.508;2023-10-08T12:50:55;102643.34;;;17.97;100.00
49030;BME280;43337;52.070;4.508;2023-10-08T12:53:27;102639.47;;;18.04;100.00
49030;BME280;43337;52.070;4.508;2023-10-08T12:56:01;102640.13;;;18.10;100.00
49030;BME280;43337;52.070;4.508;2023-10-08T12:58:40;102610.59;;;17.95;100.00
49030;BME280;43337;52.070;4.508;2023-10-08T13:01:14;102639.34;;;18.08;100.00
49030;BME280;43337;52.070;4.508;2023-10-08T13:03:49;102620.31;;;17.96;100.00
49030;BME280;43337;52.070;4.508;2023-10-08T13:06:25;102583.41;;;17.67;100.00
49030;BME280;43337;52.070;4.508;2023-10-08T13:08:57;102637.38;;;17.92;100.00